Deerfield Twp, New Jersey
Current Conditions -  °F | °C
As of 7:54 AM on Thursday 18 Dec 2014 (Local Time) from KMIV Reporting Station
Clear Clear  
Wind Chill: 27°   Ceiling: Unl
Heat Index: 34°   Visibility: 10mi
Dew Point: 19°   Wind: 9mph
Humidity: 54%   Direction: 280°W
Pressure: 30.08"   Gusts: NA
Location:  39.4433°N, 75.2554°W
Report Text: KMIV 181254Z AUTO 28008KT 10SM CLR 01/M07 A3008 RMK AO2 SLP186 T00111072
Loading
Personal Weather Stations






























Interactive Weather Map New forecast layout! Learn more

10-Day Weather Forecast

Advertisements
Track Severe Weather on mobile